Time;durP1;ratioP1;P1;durP2;ratioP2;P2;SDS_P1;SDS_P2;PMS_P1;PMS_P2;Temp;Humidity;BMP_temperature;BMP_pressure;BME280_temperature;BME280_humidity;BME280_pressure;Samples;Min_cycle;Max_cycle;Signal;HPM_P1;HPM_P2
2022/11/26 00:00:24;;;;;;;12.70;5.23;;;7.10;99.90;;;;;;5010611;28;20240;-67
2022/11/26 00:02:52;;;;;;;12.93;5.13;;;7.00;99.90;;;;;;5004428;28;20974;-67
2022/11/26 00:05:19;;;;;;;10.23;4.80;;;7.10;99.90;;;;;;5022689;28;20222;-67
2022/11/26 00:07:52;;;;;;;15.00;5.53;;;7.00;99.90;;;;;;5013439;28;20229;-66
2022/11/26 00:10:23;;;;;;;15.77;6.13;;;7.00;99.90;;;;;;4993313;28;20225;-67
2022/11/26 00:12:50;;;;;;;18.03;5.67;;;7.00;99.90;;;;;;5009608;28;20248;-67
2022/11/26 00:15:20;;;;;;;10.70;4.77;;;7.00;99.90;;;;;;5012163;28;20208;-67
2022/11/26 00:17:47;;;;;;;8.23;5.33;;;7.00;99.90;;;;;;5021517;28;20204;-67
2022/11/26 00:20:15;;;;;;;10.97;4.57;;;7.00;99.90;;;;;;5020842;28;20526;-67
2022/11/26 00:22:45;;;;;;;16.17;5.43;;;6.90;99.90;;;;;;5016118;28;20204;-66
2022/11/26 00:25:18;;;;;;;13.47;4.87;;;6.90;99.90;;;;;;4999501;28;20206;-67
2022/11/26 00:27:46;;;;;;;14.60;5.47;;;6.90;99.90;;;;;;5008856;28;20197;-67
2022/11/26 00:30:19;;;;;;;14.30;4.53;;;7.00;99.90;;;;;;5013298;28;20228;-66
2022/11/26 00:32:45;;;;;;;14.27;5.27;;;6.90;99.90;;;;;;5020131;28;20201;-67
2022/11/26 00:35:13;;;;;;;12.03;5.23;;;6.90;99.90;;;;;;5016318;28;20202;-67
2022/11/26 00:37:42;;;;;;;12.97;5.00;;;6.90;99.90;;;;;;5020732;28;20197;-67
2022/11/26 00:40:22;;;;;;;10.10;4.87;;;6.90;99.90;;;;;;5002933;28;20328;-67
2022/11/26 00:42:50;;;;;;;17.70;5.50;;;6.90;99.90;;;;;;5025577;28;20200;-66
2022/11/26 00:45:23;;;;;;;12.00;4.40;;;6.90;99.90;;;;;;5014879;28;20210;-66
2022/11/26 00:47:51;;;;;;;7.50;4.33;;;6.80;99.90;;;;;;5017911;28;20231;-66
2022/11/26 00:50:19;;;;;;;14.00;4.43;;;6.80;99.90;;;;;;5028351;28;20215;-67
2022/11/26 00:52:47;;;;;;;9.67;5.10;;;6.80;99.90;;;;;;5001376;28;20202;-67
2022/11/26 00:55:31;;;;;;;8.67;4.10;;;6.80;99.90;;;;;;5022199;28;20219;-67
2022/11/26 00:58:00;;;;;;;9.40;4.20;;;6.70;99.90;;;;;;5005867;28;20232;-66
2022/11/26 01:00:29;;;;;;;6.60;4.00;;;6.60;99.90;;;;;;5013287;28;20221;-67
2022/11/26 01:02:56;;;;;;;11.47;4.60;;;6.60;99.90;;;;;;5012218;28;20214;-67
2022/11/26 01:05:29;;;;;;;7.20;4.30;;;6.50;99.90;;;;;;5021142;28;20197;-66
2022/11/26 01:07:58;;;;;;;8.00;4.43;;;6.60;99.90;;;;;;5018043;28;21001;-67
2022/11/26 01:10:29;;;;;;;10.60;4.60;;;6.50;99.90;;;;;;5016148;28;20232;-66
2022/11/26 01:12:56;;;;;;;12.80;5.00;;;6.50;99.90;;;;;;5003224;28;20236;-67
2022/11/26 01:15:26;;;;;;;13.03;5.03;;;6.50;99.90;;;;;;5014888;28;20205;-66
2022/11/26 01:17:53;;;;;;;11.97;5.83;;;6.40;99.90;;;;;;5011432;28;20193;-66
2022/11/26 01:20:25;;;;;;;14.40;5.40;;;6.40;99.90;;;;;;5028349;28;21041;-66
2022/11/26 01:22:52;;;;;;;15.80;5.53;;;6.30;99.90;;;;;;5016379;28;20848;-66
2022/11/26 01:25:20;;;;;;;11.80;4.63;;;6.30;99.90;;;;;;5017004;28;20212;-66
2022/11/26 01:27:47;;;;;;;7.13;4.37;;;6.30;99.90;;;;;;4994329;28;20213;-66
2022/11/26 01:30:19;;;;;;;13.93;5.30;;;6.30;99.90;;;;;;5014273;28;20202;-66
2022/11/26 01:32:49;;;;;;;7.43;3.87;;;6.30;99.90;;;;;;5015376;28;20544;-66
2022/11/26 01:35:16;;;;;;;13.57;4.90;;;6.30;99.90;;;;;;5026155;28;20209;-67
2022/11/26 01:37:44;;;;;;;10.17;4.33;;;6.30;99.90;;;;;;5015708;28;20202;-67
2022/11/26 01:40:35;;;;;;;11.03;5.07;;;6.30;99.90;;;;;;5012765;28;20220;-66
2022/11/26 01:43:06;;;;;;;13.53;4.93;;;6.40;99.90;;;;;;4999745;28;20212;-66
2022/11/26 01:45:33;;;;;;;12.50;5.10;;;6.40;99.90;;;;;;5013058;28;20211;-67
2022/11/26 01:48:01;;;;;;;11.37;4.60;;;6.30;99.90;;;;;;5015643;28;20210;-66
2022/11/26 01:51:08;;;;;;;6.73;3.50;;;6.30;99.90;;;;;;5026054;28;20201;-67
2022/11/26 01:53:45;;;;;;;7.83;4.20;;;6.20;99.90;;;;;;5027699;28;20863;-66
2022/11/26 01:56:17;;;;;;;8.47;4.40;;;6.10;99.90;;;;;;5014002;28;20224;-66
2022/11/26 01:58:49;;;;;;;11.10;4.57;;;6.20;99.90;;;;;;4993727;28;20213;-66
2022/11/26 02:01:16;;;;;;;11.60;4.13;;;6.20;99.90;;;;;;5016991;28;20221;-66
2022/11/26 02:03:53;;;;;;;8.90;4.77;;;6.30;99.90;;;;;;5021926;28;20217;-67
2022/11/26 02:06:24;;;;;;;14.43;4.93;;;6.30;99.90;;;;;;5025513;28;20211;-66
2022/11/26 02:08:50;;;;;;;9.50;4.83;;;6.30;99.90;;;;;;5019136;28;20232;-66
2022/11/26 02:11:20;;;;;;;7.47;4.53;;;6.30;99.90;;;;;;5018867;28;20229;-66
2022/11/26 02:13:49;;;;;;;15.03;4.70;;;6.40;99.90;;;;;;5000357;28;20208;-66
2022/11/26 02:16:25;;;;;;;10.47;4.13;;;6.30;99.90;;;;;;5015955;28;20201;-67
2022/11/26 02:19:06;;;;;;;7.83;4.47;;;6.30;99.90;;;;;;5012250;28;20208;-65
2022/11/26 02:21:36;;;;;;;10.07;4.73;;;6.30;99.90;;;;;;5027571;28;20319;-66
2022/11/26 02:24:23;;;;;;;13.37;5.33;;;6.30;99.90;;;;;;5013333;28;20217;-66
2022/11/26 02:27:13;;;;;;;11.93;4.87;;;6.40;99.90;;;;;;5018342;28;20206;-66
2022/11/26 02:30:04;;;;;;;10.10;5.23;;;6.40;99.90;;;;;;5024268;28;21274;-66
2022/11/26 02:32:39;;;;;;;12.57;5.17;;;6.30;99.90;;;;;;5005531;28;20219;-67
2022/11/26 02:35:13;;;;;;;8.67;4.50;;;6.30;99.90;;;;;;5020823;28;20205;-66
2022/11/26 02:37:46;;;;;;;12.60;4.57;;;6.30;99.90;;;;;;5016423;28;20743;-66
2022/11/26 02:40:13;;;;;;;9.90;4.20;;;6.30;99.90;;;;;;5022992;28;20262;-66
2022/11/26 02:42:40;;;;;;;9.00;4.43;;;6.30;99.90;;;;;;4997249;28;20220;-66
2022/11/26 02:45:11;;;;;;;5.73;4.07;;;6.30;99.90;;;;;;5024571;28;20207;-66
2022/11/26 02:47:41;;;;;;;11.77;4.67;;;6.30;99.90;;;;;;5003525;28;21400;-66
2022/11/26 02:50:12;;;;;;;9.37;4.53;;;6.30;99.90;;;;;;5027308;28;20215;-66
2022/11/26 02:52:41;;;;;;;14.27;5.33;;;6.10;99.90;;;;;;5015685;28;20213;-66
2022/11/26 02:55:12;;;;;;;9.43;4.60;;;6.10;99.90;;;;;;5022971;28;20201;-66
2022/11/26 02:57:44;;;;;;;14.70;5.37;;;6.10;99.90;;;;;;4995577;28;20213;-66
2022/11/26 03:00:14;;;;;;;13.67;4.87;;;6.10;99.90;;;;;;5021836;28;20750;-67
2022/11/26 03:02:45;;;;;;;6.13;4.47;;;6.20;99.90;;;;;;5011996;28;21625;-66
2022/11/26 03:05:16;;;;;;;9.13;4.67;;;6.10;99.90;;;;;;5017664;28;20788;-66
2022/11/26 03:07:44;;;;;;;8.73;4.60;;;6.10;99.90;;;;;;5014448;28;20204;-66
2022/11/26 03:10:12;;;;;;;11.43;5.00;;;6.10;99.90;;;;;;5022139;28;20230;-66
2022/11/26 03:12:39;;;;;;;13.17;5.00;;;6.00;99.90;;;;;;5026683;28;20581;-66
2022/11/26 03:15:07;;;;;;;15.00;5.10;;;6.10;99.90;;;;;;5003789;28;20576;-67
2022/11/26 03:17:35;;;;;;;11.13;5.10;;;6.00;99.90;;;;;;5010495;28;20801;-66
2022/11/26 03:20:02;;;;;;;18.97;5.80;;;6.00;99.90;;;;;;5014835;28;20241;-66
2022/11/26 03:22:29;;;;;;;14.40;7.67;;;6.00;99.90;;;;;;5010726;28;20270;-67
2022/11/26 03:24:56;;;;;;;14.90;8.13;;;6.00;99.90;;;;;;5029136;28;20908;-66
2022/11/26 03:27:23;;;;;;;20.77;8.80;;;5.90;99.90;;;;;;5016931;28;20200;-67
2022/11/26 03:29:49;;;;;;;13.27;6.30;;;5.90;99.90;;;;;;5000883;28;20212;-66
2022/11/26 03:32:16;;;;;;;10.17;4.77;;;5.70;99.90;;;;;;5021748;28;20648;-67
2022/11/26 03:34:44;;;;;;;9.73;4.80;;;5.60;99.90;;;;;;5020596;28;20206;-66
2022/11/26 03:37:11;;;;;;;8.37;4.43;;;5.40;99.90;;;;;;5014236;28;21023;-66
2022/11/26 03:39:38;;;;;;;7.07;3.77;;;5.30;99.90;;;;;;5014908;28;20206;-67
2022/11/26 03:42:05;;;;;;;9.53;3.83;;;5.20;99.90;;;;;;5025678;28;20198;-66
2022/11/26 03:44:32;;;;;;;9.03;4.30;;;5.20;99.90;;;;;;5024872;28;20261;-66
2022/11/26 03:46:59;;;;;;;7.93;4.33;;;5.00;99.90;;;;;;5001067;28;20856;-66
2022/11/26 03:49:26;;;;;;;6.67;4.07;;;4.90;99.90;;;;;;5013202;28;20231;-67
2022/11/26 03:51:54;;;;;;;7.57;3.80;;;4.80;99.90;;;;;;5013272;28;20211;-67
2022/11/26 03:54:21;;;;;;;22.47;3.93;;;4.80;99.90;;;;;;5010643;28;20202;-66
2022/11/26 03:56:48;;;;;;;22.67;4.50;;;4.70;99.90;;;;;;5023268;28;20209;-66
2022/11/26 03:59:14;;;;;;;14.87;4.10;;;4.70;99.90;;;;;;5022516;28;20657;-67
2022/11/26 04:01:41;;;;;;;11.10;3.73;;;4.60;99.90;;;;;;4993814;28;20729;-67
2022/11/26 04:04:08;;;;;;;8.97;3.80;;;4.70;99.90;;;;;;5014570;28;20212;-65
2022/11/26 04:06:35;;;;;;;10.80;4.57;;;4.70;99.90;;;;;;5013010;28;20203;-66
2022/11/26 04:09:03;;;;;;;27.70;4.63;;;4.70;99.90;;;;;;5022620;28;20206;-66
2022/11/26 04:11:30;;;;;;;22.30;4.00;;;4.80;99.90;;;;;;5011802;28;20245;-66
2022/11/26 04:13:57;;;;;;;6.23;3.43;;;4.70;99.90;;;;;;5024457;28;20201;-66
2022/11/26 04:16:24;;;;;;;12.10;3.27;;;4.70;99.90;;;;;;5021654;28;20204;-66
2022/11/26 04:18:50;;;;;;;4.50;3.33;;;4.70;99.90;;;;;;4983034;28;20215;-66
2022/11/26 04:21:17;;;;;;;5.37;3.40;;;4.70;99.90;;;;;;5024229;28;20232;-66
2022/11/26 04:23:44;;;;;;;5.23;3.60;;;4.70;99.90;;;;;;5009147;28;20205;-66
2022/11/26 04:26:12;;;;;;;6.60;3.37;;;4.60;99.90;;;;;;5012057;28;20230;-66
2022/11/26 04:28:39;;;;;;;5.07;3.10;;;4.70;99.90;;;;;;5015530;28;20206;-66
2022/11/26 04:31:06;;;;;;;7.20;4.03;;;4.70;99.90;;;;;;5017831;28;20226;-66
2022/11/26 04:33:33;;;;;;;7.13;4.07;;;4.70;99.90;;;;;;4997534;28;20213;-66
2022/11/26 04:35:59;;;;;;;8.93;4.47;;;4.80;99.90;;;;;;5012151;28;20773;-65
2022/11/26 04:38:26;;;;;;;8.37;4.80;;;4.90;99.90;;;;;;5012252;28;20210;-66
2022/11/26 04:40:53;;;;;;;11.73;5.20;;;5.00;99.90;;;;;;5014880;28;20775;-66
2022/11/26 04:43:22;;;;;;;10.53;5.33;;;5.10;99.90;;;;;;5018700;28;20205;-66
2022/11/26 04:45:48;;;;;;;12.00;5.53;;;5.20;99.90;;;;;;5020334;28;20203;-66
2022/11/26 04:48:15;;;;;;;11.07;5.60;;;5.20;99.90;;;;;;5018031;28;20740;-67
2022/11/26 04:50:42;;;;;;;10.60;5.43;;;5.20;99.90;;;;;;5001733;28;20206;-66
2022/11/26 04:53:09;;;;;;;8.67;5.23;;;5.20;99.90;;;;;;5013074;28;20206;-66
2022/11/26 04:55:36;;;;;;;10.50;5.03;;;5.30;99.90;;;;;;5010737;28;20237;-66
2022/11/26 04:58:03;;;;;;;7.33;4.90;;;5.30;99.90;;;;;;5018865;28;20206;-66
2022/11/26 05:00:31;;;;;;;9.70;5.10;;;5.30;99.90;;;;;;5020083;28;20226;-66
2022/11/26 05:02:58;;;;;;;7.67;5.10;;;5.30;99.90;;;;;;5025892;28;20205;-66
2022/11/26 05:05:25;;;;;;;8.10;5.30;;;5.30;99.90;;;;;;4989712;28;20208;-66
2022/11/26 05:07:51;;;;;;;10.47;5.13;;;5.20;99.90;;;;;;5020708;28;20745;-66
2022/11/26 05:10:18;;;;;;;8.33;4.70;;;5.20;99.90;;;;;;5004883;28;20607;-66
2022/11/26 05:12:45;;;;;;;8.93;4.67;;;5.20;99.90;;;;;;5012906;28;20230;-66
2022/11/26 05:15:12;;;;;;;7.70;5.17;;;5.30;99.90;;;;;;5017984;28;20197;-66
2022/11/26 05:17:40;;;;;;;8.10;5.20;;;5.30;99.90;;;;;;5021922;28;20673;-66
2022/11/26 05:20:09;;;;;;;8.47;5.40;;;5.30;99.90;;;;;;5024137;28;20199;-66
2022/11/26 05:22:35;;;;;;;9.00;5.27;;;5.20;99.90;;;;;;4989795;28;20205;-66
2022/11/26 05:25:02;;;;;;;8.50;4.63;;;5.20;99.90;;;;;;5012740;28;20208;-66
2022/11/26 05:27:29;;;;;;;12.47;5.80;;;5.30;99.90;;;;;;5011513;28;20206;-66
2022/11/26 05:29:56;;;;;;;10.27;5.83;;;5.30;99.90;;;;;;5024199;28;20213;-66
2022/11/26 05:32:23;;;;;;;10.43;5.67;;;5.20;99.90;;;;;;5022141;28;20583;-66
2022/11/26 05:34:51;;;;;;;11.20;5.67;;;5.10;99.90;;;;;;5024664;28;20236;-66
2022/11/26 05:37:18;;;;;;;9.13;5.30;;;5.10;99.90;;;;;;4995474;28;20208;-66
2022/11/26 05:39:44;;;;;;;10.67;5.80;;;5.10;99.90;;;;;;5026227;28;20201;-66
2022/11/26 05:42:11;;;;;;;33.63;7.33;;;5.20;99.90;;;;;;5009910;28;21041;-66
2022/11/26 05:44:38;;;;;;;48.87;7.20;;;5.10;99.90;;;;;;5014848;28;20201;-66
2022/11/26 05:47:05;;;;;;;23.80;7.27;;;5.10;99.90;;;;;;5009830;28;20777;-66
2022/11/26 05:49:32;;;;;;;72.50;8.03;;;5.10;99.90;;;;;;5020146;28;20193;-66
2022/11/26 05:52:00;;;;;;;54.33;7.53;;;5.20;99.90;;;;;;5002849;28;20216;-66
2022/11/26 05:54:27;;;;;;;49.30;7.17;;;5.10;99.90;;;;;;5021492;28;20208;-66
2022/11/26 05:56:54;;;;;;;59.47;7.43;;;5.10;99.90;;;;;;5007930;28;20223;-66
2022/11/26 05:59:21;;;;;;;58.93;6.90;;;4.80;99.90;;;;;;5010476;28;20210;-67
2022/11/26 06:01:48;;;;;;;35.23;6.43;;;5.00;99.90;;;;;;5022823;28;20226;-66
2022/11/26 06:04:14;;;;;;;22.47;5.57;;;5.00;99.90;;;;;;5020023;28;20201;-66
2022/11/26 06:06:41;;;;;;;23.37;5.47;;;5.00;99.90;;;;;;5024333;28;20194;-66
2022/11/26 06:09:09;;;;;;;14.37;5.47;;;5.10;99.90;;;;;;4994653;28;20210;-66
2022/11/26 06:11:36;;;;;;;10.50;5.17;;;5.10;99.90;;;;;;5013490;28;20606;-66
2022/11/26 06:14:03;;;;;;;16.37;5.40;;;5.10;99.90;;;;;;5010261;28;20201;-66
2022/11/26 06:16:29;;;;;;;25.40;6.07;;;5.20;99.90;;;;;;5019424;28;20211;-66
2022/11/26 06:18:57;;;;;;;24.23;5.53;;;5.20;99.90;;;;;;5019714;28;20200;-66
2022/11/26 06:21:24;;;;;;;12.10;5.43;;;5.20;99.90;;;;;;5013205;28;20255;-67
2022/11/26 06:23:51;;;;;;;15.90;6.00;;;5.30;99.90;;;;;;4997782;28;20218;-66
2022/11/26 06:26:19;;;;;;;47.90;6.13;;;5.30;99.90;;;;;;5005489;28;20246;-66
2022/11/26 06:28:46;;;;;;;17.27;5.60;;;5.30;99.90;;;;;;5017627;28;20194;-66
2022/11/26 06:31:13;;;;;;;14.07;5.53;;;5.30;99.90;;;;;;5014276;28;20201;-66
2022/11/26 06:33:39;;;;;;;35.83;6.07;;;5.40;99.90;;;;;;5024388;28;20201;-66
2022/11/26 06:36:06;;;;;;;28.93;6.93;;;5.40;99.90;;;;;;5019806;28;20212;-66
2022/11/26 06:38:33;;;;;;;11.23;6.20;;;5.50;99.90;;;;;;4996168;28;20575;-66
2022/11/26 06:41:01;;;;;;;13.70;6.37;;;5.40;99.90;;;;;;5025097;28;20224;-66
2022/11/26 06:43:30;;;;;;;30.77;6.83;;;5.40;99.90;;;;;;5014798;28;20206;-67
2022/11/26 06:46:02;;;;;;;50.53;7.23;;;5.50;99.90;;;;;;5015787;28;20206;-66
2022/11/26 06:48:29;;;;;;;32.73;6.57;;;5.50;99.90;;;;;;5023955;28;20715;-66
2022/11/26 06:50:55;;;;;;;25.63;6.50;;;5.60;99.90;;;;;;5025745;28;20201;-67
2022/11/26 06:53:22;;;;;;;28.40;6.40;;;5.60;99.90;;;;;;5006231;28;20205;-67
2022/11/26 06:55:49;;;;;;;27.87;7.57;;;5.50;99.90;;;;;;5027093;28;20288;-66
2022/11/26 06:58:16;;;;;;;34.50;7.30;;;5.60;99.90;;;;;;5010408;28;20194;-66
2022/11/26 07:00:44;;;;;;;32.13;6.60;;;5.60;99.90;;;;;;5014222;28;20242;-66
2022/11/26 07:03:11;;;;;;;22.07;6.73;;;5.50;99.90;;;;;;5027213;28;20665;-65
2022/11/26 07:05:38;;;;;;;35.17;7.40;;;5.50;99.90;;;;;;5023001;28;20198;-67
2022/11/26 07:08:05;;;;;;;41.10;7.13;;;5.40;99.90;;;;;;5023047;28;20216;-66
2022/11/26 07:10:32;;;;;;;45.83;8.37;;;5.40;99.90;;;;;;4996585;28;20229;-66
2022/11/26 07:12:59;;;;;;;63.23;10.70;;;5.40;99.90;;;;;;5016446;28;21110;-66
2022/11/26 07:15:25;;;;;;;32.27;8.67;;;5.40;99.90;;;;;;5029790;28;20213;-67
2022/11/26 07:17:54;;;;;;;56.57;8.00;;;5.40;99.90;;;;;;5010346;28;20202;-66
2022/11/26 07:20:20;;;;;;;34.17;6.87;;;5.50;99.90;;;;;;5028434;28;20730;-66
2022/11/26 07:22:47;;;;;;;48.33;7.73;;;5.50;99.90;;;;;;5025382;28;20231;-66
2022/11/26 07:25:15;;;;;;;27.83;7.33;;;5.50;99.90;;;;;;5002374;28;20208;-66
2022/11/26 07:27:44;;;;;;;55.43;7.83;;;5.50;99.90;;;;;;5013895;28;20292;-66
2022/11/26 07:30:12;;;;;;;70.03;7.17;;;5.50;99.90;;;;;;5017124;28;20213;-66
2022/11/26 07:32:39;;;;;;;58.87;7.70;;;5.50;99.90;;;;;;5011693;28;20586;-66
2022/11/26 07:35:08;;;;;;;73.07;7.67;;;5.60;99.90;;;;;;5021599;28;20189;-66
2022/11/26 07:37:35;;;;;;;62.70;8.50;;;5.60;99.90;;;;;;5026166;28;20217;-66
2022/11/26 07:40:02;;;;;;;64.00;7.73;;;5.60;99.90;;;;;;5010398;28;20197;-67
2022/11/26 07:42:31;;;;;;;53.83;7.90;;;5.60;99.90;;;;;;5020401;28;20692;-66
2022/11/26 07:44:58;;;;;;;33.67;7.93;;;5.60;99.90;;;;;;5013607;28;20206;-66
2022/11/26 07:47:25;;;;;;;39.17;7.53;;;5.70;99.90;;;;;;5016306;28;20209;-66
2022/11/26 07:49:52;;;;;;;12.20;7.30;;;5.70;99.90;;;;;;5022668;28;20205;-66
2022/11/26 07:52:20;;;;;;;42.10;7.30;;;5.70;99.90;;;;;;5022744;28;20207;-66
2022/11/26 07:54:47;;;;;;;101.00;9.20;;;5.70;99.90;;;;;;5020329;28;20368;-66
2022/11/26 07:57:13;;;;;;;35.70;6.63;;;5.70;99.90;;;;;;4998580;28;20714;-66
2022/11/26 07:59:40;;;;;;;57.10;8.00;;;5.70;99.90;;;;;;5011594;28;20643;-66
2022/11/26 08:02:12;;;;;;;29.57;7.53;;;5.90;99.90;;;;;;5005935;28;20321;-66
2022/11/26 08:04:39;;;;;;;80.63;11.87;;;5.80;99.90;;;;;;5020634;28;20205;-66
2022/11/26 08:07:06;;;;;;;25.60;8.43;;;5.80;99.90;;;;;;5000978;28;20211;-67
2022/11/26 08:09:34;;;;;;;46.90;8.57;;;5.90;99.90;;;;;;5018886;28;20205;-66
2022/11/26 08:12:01;;;;;;;55.70;8.67;;;5.90;99.90;;;;;;4997595;28;20601;-67
2022/11/26 08:14:27;;;;;;;45.30;7.93;;;5.90;99.90;;;;;;5011523;28;20204;-68
2022/11/26 08:16:55;;;;;;;35.77;7.57;;;6.00;99.90;;;;;;5004710;28;20860;-68
2022/11/26 08:19:22;;;;;;;32.07;7.23;;;6.00;99.90;;;;;;5023007;28;20211;-67
2022/11/26 08:21:49;;;;;;;60.27;7.83;;;6.10;99.90;;;;;;5026519;28;20228;-67
2022/11/26 08:24:18;;;;;;;40.13;7.33;;;6.10;99.90;;;;;;5014884;28;20217;-66
2022/11/26 08:26:47;;;;;;;55.17;7.37;;;6.10;99.90;;;;;;4990640;28;20228;-67
2022/11/26 08:29:14;;;;;;;33.77;7.70;;;6.10;99.90;;;;;;5022619;28;20300;-65
2022/11/26 08:31:41;;;;;;;16.10;7.40;;;6.20;99.90;;;;;;4997551;28;21594;-65
2022/11/26 08:34:11;;;;;;;16.97;7.07;;;6.30;99.90;;;;;;5016731;28;20228;-65
2022/11/26 08:36:38;;;;;;;74.30;8.13;;;6.30;99.90;;;;;;5022587;28;20224;-66
2022/11/26 08:39:04;;;;;;;31.77;7.00;;;6.40;99.90;;;;;;5013422;28;20236;-65
2022/11/26 08:41:31;;;;;;;50.40;9.80;;;6.40;99.90;;;;;;4992338;28;20234;-66
2022/11/26 08:43:59;;;;;;;36.30;12.30;;;6.40;99.90;;;;;;5023510;28;20205;-66
2022/11/26 08:46:26;;;;;;;40.13;20.30;;;6.40;99.90;;;;;;5013720;28;20205;-66
2022/11/26 08:48:55;;;;;;;25.60;10.60;;;6.50;99.90;;;;;;5004099;28;20209;-66
2022/11/26 08:51:22;;;;;;;28.23;7.67;;;6.50;99.90;;;;;;5024683;28;20215;-66
2022/11/26 08:53:49;;;;;;;13.33;7.03;;;6.50;99.90;;;;;;5010778;28;21469;-66
2022/11/26 08:56:16;;;;;;;26.97;7.50;;;6.60;99.90;;;;;;5021326;28;20227;-65
2022/11/26 08:58:44;;;;;;;13.80;6.97;;;6.50;99.90;;;;;;4997465;28;20222;-65
2022/11/26 09:01:14;;;;;;;45.17;7.93;;;6.60;99.90;;;;;;5015351;28;20552;-66
2022/11/26 09:03:42;;;;;;;24.70;8.43;;;6.60;99.90;;;;;;4977745;28;20220;-66
2022/11/26 09:06:09;;;;;;;50.50;8.43;;;6.60;99.90;;;;;;5010041;28;21826;-66
2022/11/26 09:09:11;;;;;;;37.93;8.87;;;6.70;99.90;;;;;;4970097;28;20347;-66
2022/11/26 09:11:25;;;;;;;33.63;8.27;;;6.70;99.90;;;;;;5011822;28;20265;-65
2022/11/26 09:13:52;;;;;;;23.23;7.57;;;6.80;99.90;;;;;;5003922;28;20213;-65
2022/11/26 09:16:20;;;;;;;12.60;7.97;;;6.80;99.90;;;;;;5019910;28;20202;-65
2022/11/26 09:18:47;;;;;;;16.90;8.67;;;6.80;99.90;;;;;;4994771;28;21265;-66
2022/11/26 09:21:14;;;;;;;16.93;8.87;;;6.90;99.90;;;;;;5016129;28;20204;-66
2022/11/26 09:23:40;;;;;;;29.70;8.33;;;6.90;99.90;;;;;;5008240;28;20231;-66
2022/11/26 09:26:07;;;;;;;27.03;7.73;;;6.90;99.90;;;;;;5012459;28;20217;-65
2022/11/26 09:28:34;;;;;;;53.17;9.23;;;6.90;99.90;;;;;;4988952;28;20212;-66
2022/11/26 09:31:02;;;;;;;38.30;9.00;;;6.90;99.90;;;;;;5017886;28;20227;-65
2022/11/26 09:33:31;;;;;;;33.33;8.30;;;7.00;99.90;;;;;;4999855;28;20591;-66
2022/11/26 09:36:03;;;;;;;15.03;7.53;;;7.00;99.90;;;;;;5007983;28;20219;-64
2022/11/26 09:38:30;;;;;;;41.20;8.37;;;7.00;99.90;;;;;;5003959;28;20224;-65
2022/11/26 09:41:04;;;;;;;87.60;9.63;;;7.10;99.90;;;;;;5004469;28;20229;-64
2022/11/26 09:43:42;;;;;;;19.40;7.77;;;7.10;99.90;;;;;;4999328;28;20232;-66
2022/11/26 09:46:11;;;;;;;30.53;8.63;;;7.20;99.90;;;;;;5022201;28;20229;-64
2022/11/26 09:48:42;;;;;;;31.30;12.50;;;7.20;99.90;;;;;;5002378;28;20228;-64
2022/11/26 09:51:16;;;;;;;24.13;14.10;;;7.30;99.90;;;;;;5007691;28;20220;-65
2022/11/26 09:53:46;;;;;;;33.13;11.77;;;7.30;99.90;;;;;;5005765;28;20204;-67
2022/11/26 09:56:18;;;;;;;26.00;10.30;;;7.30;99.90;;;;;;4994410;28;20225;-66
2022/11/26 09:58:52;;;;;;;41.67;8.97;;;7.40;99.90;;;;;;5015892;28;20656;-64
2022/11/26 10:01:21;;;;;;;14.77;9.33;;;7.40;99.90;;;;;;4989103;28;20224;-66
2022/11/26 10:03:51;;;;;;;24.33;9.17;;;7.40;99.90;;;;;;5008189;28;20729;-67
2022/11/26 10:06:30;;;;;;;12.47;8.50;;;7.40;99.90;;;;;;5009548;28;20213;-65
2022/11/26 10:09:14;;;;;;;13.20;8.33;;;7.40;99.90;;;;;;5022832;28;20665;-64
2022/11/26 10:11:46;;;;;;;14.57;8.27;;;7.40;99.90;;;;;;5000744;28;20236;-65
2022/11/26 10:14:28;;;;;;;12.63;8.13;;;7.50;99.90;;;;;;5022823;28;20201;-64
2022/11/26 10:17:08;;;;;;;15.03;8.70;;;7.50;99.90;;;;;;5012146;28;20206;-66
2022/11/26 10:19:44;;;;;;;16.63;9.97;;;7.50;99.90;;;;;;5012321;28;20220;-65
2022/11/26 10:22:22;;;;;;;24.37;9.83;;;7.60;99.90;;;;;;5007304;28;20581;-64
2022/11/26 10:24:50;;;;;;;23.17;10.43;;;7.70;99.90;;;;;;5018148;28;20201;-66
2022/11/26 10:27:19;;;;;;;13.60;9.37;;;7.70;99.90;;;;;;5002187;28;20254;-65
2022/11/26 10:29:50;;;;;;;16.97;9.07;;;7.70;99.90;;;;;;5020913;28;20783;-65
2022/11/26 10:32:24;;;;;;;15.03;9.57;;;7.80;99.90;;;;;;4989483;28;20241;-66
2022/11/26 10:34:54;;;;;;;15.90;9.33;;;7.80;99.90;;;;;;5027998;28;20213;-65
2022/11/26 10:37:23;;;;;;;15.53;8.93;;;7.90;99.90;;;;;;4995565;28;20221;-66
2022/11/26 10:40:00;;;;;;;11.73;8.50;;;7.90;99.90;;;;;;5024476;28;20603;-66
2022/11/26 10:42:27;;;;;;;23.37;10.97;;;7.90;99.90;;;;;;4995302;28;20335;-66
2022/11/26 10:44:54;;;;;;;19.23;11.10;;;7.90;99.90;;;;;;5021834;28;20222;-66
2022/11/26 10:47:27;;;;;;;19.03;12.57;;;7.90;99.90;;;;;;4998581;28;20214;-66
2022/11/26 10:49:57;;;;;;;21.50;11.80;;;8.00;99.90;;;;;;5022201;28;20198;-65
2022/11/26 10:52:27;;;;;;;17.93;11.47;;;8.00;99.90;;;;;;4997804;28;20335;-65
2022/11/26 10:55:18;;;;;;;19.30;11.53;;;8.10;99.90;;;;;;5017884;28;20363;-66
2022/11/26 10:57:49;;;;;;;27.70;14.13;;;8.10;99.90;;;;;;5003134;28;20194;-66
2022/11/26 11:00:36;;;;;;;21.23;11.83;;;8.10;99.90;;;;;;5026135;28;20209;-66
2022/11/26 11:03:05;;;;;;;22.30;11.57;;;8.20;99.90;;;;;;5016075;28;20275;-66
2022/11/26 11:05:34;;;;;;;20.77;11.03;;;8.20;99.90;;;;;;5025026;28;20217;-66
2022/11/26 11:08:01;;;;;;;26.57;10.93;;;8.20;99.90;;;;;;4996135;28;20570;-66
2022/11/26 11:10:28;;;;;;;21.40;10.27;;;8.30;99.90;;;;;;5021382;28;20597;-66
2022/11/26 11:13:09;;;;;;;18.03;10.67;;;8.30;99.90;;;;;;4999543;28;20229;-66
2022/11/26 11:15:37;;;;;;;24.67;11.53;;;8.30;99.90;;;;;;5014223;28;20248;-67
2022/11/26 11:18:06;;;;;;;21.17;10.80;;;8.40;99.90;;;;;;4986689;28;20339;-66
2022/11/26 11:20:37;;;;;;;26.63;11.03;;;8.40;99.90;;;;;;5019004;28;20225;-66
2022/11/26 11:23:18;;;;;;;17.10;10.50;;;8.40;99.90;;;;;;5006276;28;21530;-66
2022/11/26 11:25:48;;;;;;;18.63;11.07;;;8.50;99.90;;;;;;5002240;28;21309;-66
2022/11/26 11:28:19;;;;;;;21.30;11.77;;;8.40;99.90;;;;;;5007066;28;20527;-66
2022/11/26 11:30:46;;;;;;;20.40;10.40;;;8.50;99.90;;;;;;4994286;28;20216;-66
2022/11/26 11:33:20;;;;;;;22.60;11.63;;;8.50;99.90;;;;;;4996662;28;21357;-66
2022/11/26 11:36:00;;;;;;;20.27;11.37;;;8.40;99.90;;;;;;5021333;28;20224;-65
2022/11/26 11:38:29;;;;;;;23.07;10.73;;;8.60;99.90;;;;;;4997836;28;20231;-66
2022/11/26 11:40:56;;;;;;;22.73;10.90;;;8.60;99.90;;;;;;5001889;28;20217;-66
2022/11/26 11:43:25;;;;;;;19.33;11.00;;;8.60;99.90;;;;;;5008373;28;20229;-66
2022/11/26 11:46:05;;;;;;;19.97;10.87;;;8.60;99.90;;;;;;5008313;28;20291;-67
2022/11/26 11:48:45;;;;;;;20.47;11.87;;;8.70;99.90;;;;;;4997074;28;20224;-66
2022/11/26 11:51:24;;;;;;;20.73;11.60;;;8.70;99.90;;;;;;5021948;28;20225;-66
2022/11/26 11:54:02;;;;;;;25.87;12.50;;;8.70;99.90;;;;;;4997018;28;20201;-67
2022/11/26 11:56:36;;;;;;;27.33;11.43;;;8.80;99.90;;;;;;5017877;28;20217;-67
2022/11/26 11:59:36;;;;;;;23.47;12.10;;;8.80;99.90;;;;;;5003566;28;21032;-66
2022/11/26 12:02:24;;;;;;;20.87;10.67;;;8.80;99.90;;;;;;5002123;28;20626;-66
2022/11/26 12:05:06;;;;;;;26.50;12.93;;;9.00;99.90;;;;;;4982747;28;20260;-66
2022/11/26 12:07:38;;;;;;;27.97;11.67;;;9.00;99.90;;;;;;5018756;28;20221;-67
2022/11/26 12:10:12;;;;;;;26.30;12.63;;;8.90;99.90;;;;;;4998703;28;20244;-66
2022/11/26 12:12:44;;;;;;;29.40;12.27;;;9.00;99.90;;;;;;5017381;28;20241;-67
2022/11/26 12:15:21;;;;;;;28.50;12.77;;;9.00;99.90;;;;;;4991412;28;20221;-67
2022/11/26 12:17:52;;;;;;;24.77;12.70;;;8.90;99.90;;;;;;4991340;28;20221;-67
2022/11/26 12:20:25;;;;;;;29.57;11.67;;;9.00;99.90;;;;;;5014085;28;20206;-67
2022/11/26 12:22:58;;;;;;;24.40;12.13;;;9.00;99.90;;;;;;5013213;28;20234;-67
2022/11/26 12:25:31;;;;;;;22.53;12.23;;;9.00;99.90;;;;;;4996031;28;20200;-67
2022/11/26 12:28:02;;;;;;;26.17;12.80;;;9.00;99.90;;;;;;5010955;28;20769;-67
2022/11/26 12:30:41;;;;;;;21.53;12.63;;;9.10;99.90;;;;;;5003623;28;20230;-68
2022/11/26 12:33:14;;;;;;;21.70;12.60;;;9.00;99.90;;;;;;4996604;28;20282;-68
2022/11/26 12:35:46;;;;;;;17.07;9.23;;;9.10;99.90;;;;;;4985885;28;20229;-68
2022/11/26 12:38:18;;;;;;;22.60;10.23;;;9.30;99.90;;;;;;5004425;28;20221;-68
2022/11/26 12:40:49;;;;;;;27.90;12.53;;;9.60;99.90;;;;;;5005064;28;20228;-69
2022/11/26 12:43:19;;;;;;;21.00;11.57;;;9.80;99.90;;;;;;5011854;28;20609;-68
2022/11/26 12:45:54;;;;;;;25.57;12.87;;;9.80;99.90;;;;;;5004486;28;20221;-67
2022/11/26 12:48:40;;;;;;;21.83;11.87;;;9.60;99.90;;;;;;5009862;28;20226;-67
2022/11/26 12:51:18;;;;;;;27.67;13.10;;;9.40;99.90;;;;;;4989478;28;20319;-68
2022/11/26 12:53:53;;;;;;;21.00;12.50;;;9.20;99.90;;;;;;5006518;28;20786;-68
2022/11/26 12:56:30;;;;;;;27.53;12.87;;;9.20;99.90;;;;;;4997536;28;20323;-68
2022/11/26 12:59:03;;;;;;;23.70;13.57;;;9.10;99.90;;;;;;5011047;28;21314;-68